createdAt,value
2023-02-27T00:00:14.828Z,97921.94
2023-02-27T00:02:44.317Z,97914.38
2023-02-27T00:05:13.289Z,97918.56
2023-02-27T00:07:42.258Z,97912.69
2023-02-27T00:10:13.808Z,97917.72
2023-02-27T00:12:42.876Z,97912.69
2023-02-27T00:15:15.615Z,97910.16
2023-02-27T00:17:44.635Z,97911.84
2023-02-27T00:20:15.656Z,97909.34
2023-02-27T00:22:44.774Z,97908.47
2023-02-27T00:25:14.318Z,97911.84
2023-02-27T00:27:43.622Z,97899.22
2023-02-27T00:30:16.430Z,97910.97
2023-02-27T00:32:45.388Z,97907.63
2023-02-27T00:35:14.020Z,97911.84
2023-02-27T00:37:42.580Z,97913.53
2023-02-27T00:40:13.370Z,97906.78
2023-02-27T00:42:42.044Z,97908.47
2023-02-27T00:45:11.330Z,97916.03
2023-02-27T00:47:41.195Z,97917.72
2023-02-27T00:50:12.145Z,97910.16
2023-02-27T00:52:40.792Z,97910.16
2023-02-27T00:55:10.864Z,97911.00
2023-02-27T00:57:40.431Z,97910.97
2023-02-27T01:00:11.201Z,97902.56
2023-02-27T01:02:41.418Z,97911.00
2023-02-27T01:05:11.164Z,97906.81
2023-02-27T01:07:39.997Z,97909.31
2023-02-27T01:10:09.964Z,97909.31
2023-02-27T01:12:39.843Z,97906.78
2023-02-27T01:15:10.740Z,97916.03
2023-02-27T01:17:39.371Z,97903.44
2023-02-27T01:20:12.320Z,97909.28
2023-02-27T01:22:41.079Z,97903.41
2023-02-27T01:25:10.042Z,97916.03
2023-02-27T01:27:40.921Z,97900.91
2023-02-27T01:30:11.477Z,97905.09
2023-02-27T01:32:40.086Z,97913.50
2023-02-27T01:35:10.450Z,97894.97
2023-02-27T01:37:38.910Z,97916.84
2023-02-27T01:40:08.900Z,97911.78
2023-02-27T01:42:37.795Z,97919.38
2023-02-27T01:45:27.477Z,97909.28
2023-02-27T01:48:06.020Z,97912.66
2023-02-27T01:50:40.507Z,97900.84
2023-02-27T01:53:10.302Z,97900.03
2023-02-27T01:55:40.752Z,97900.06
2023-02-27T01:58:12.863Z,97895.84
2023-02-27T02:00:41.530Z,97898.34
2023-02-27T02:03:21.345Z,97905.94
2023-02-27T02:05:54.601Z,97897.53
2023-02-27T02:08:25.796Z,97890.78
2023-02-27T02:10:56.399Z,97888.25
2023-02-27T02:13:25.130Z,97897.50
2023-02-27T02:16:07.804Z,97897.53
2023-02-27T02:18:48.405Z,97892.47
2023-02-27T02:22:01.689Z,97895.00
2023-02-27T02:25:14.933Z,97901.72
2023-02-27T02:27:57.658Z,97900.03
2023-02-27T02:30:54.397Z,97898.38
2023-02-27T02:34:03.330Z,97902.59
2023-02-27T02:37:05.442Z,97897.53
2023-02-27T02:39:52.446Z,97902.59
2023-02-27T02:42:24.923Z,97906.78
2023-02-27T02:45:09.773Z,97886.59
2023-02-27T02:47:47.804Z,97893.34
2023-02-27T02:50:27.333Z,97892.47
2023-02-27T02:53:05.705Z,97904.28
2023-02-27T02:55:43.303Z,97885.75
2023-02-27T02:58:18.592Z,97893.31
2023-02-27T03:00:52.403Z,97897.53
2023-02-27T03:03:27.603Z,97894.16
2023-02-27T03:06:01.945Z,97907.63
2023-02-27T03:08:34.128Z,97905.97
2023-02-27T03:11:05.266Z,97909.31
2023-02-27T03:13:40.070Z,97907.63
2023-02-27T03:16:15.719Z,97904.25
2023-02-27T03:18:50.455Z,97909.31
2023-02-27T03:21:24.325Z,97910.16
2023-02-27T03:23:57.435Z,97911.00
2023-02-27T03:26:34.646Z,97906.78
2023-02-27T03:29:07.574Z,97900.88
2023-02-27T03:31:43.120Z,97905.94
2023-02-27T03:34:17.973Z,97904.25
2023-02-27T03:36:51.570Z,97903.44
2023-02-27T03:39:28.565Z,97906.78
2023-02-27T03:42:07.761Z,97911.00
2023-02-27T03:45:09.028Z,97909.31
2023-02-27T03:47:38.060Z,97913.50
2023-02-27T03:50:07.748Z,97905.09
2023-02-27T03:52:36.393Z,97917.75
2023-02-27T03:55:12.185Z,97915.19
2023-02-27T03:57:43.601Z,97917.72
2023-02-27T04:00:19.452Z,97923.63
2023-02-27T04:02:51.617Z,97918.56
2023-02-27T04:05:24.453Z,97920.25
2023-02-27T04:08:24.531Z,97927.81
2023-02-27T04:11:14.071Z,97932.84
2023-02-27T04:13:55.233Z,97936.22
2023-02-27T04:16:44.545Z,97926.94
2023-02-27T04:19:24.234Z,97931.97
2023-02-27T04:22:05.606Z,97937.84
2023-02-27T04:24:43.901Z,97937.84
2023-02-27T04:27:23.146Z,97942.06
2023-02-27T04:30:00.840Z,97940.31
2023-02-27T04:32:35.988Z,97947.06
2023-02-27T04:35:09.751Z,97942.84
2023-02-27T04:37:47.420Z,97941.97
2023-02-27T04:40:20.309Z,97943.66
2023-02-27T04:42:54.877Z,97948.69
2023-02-27T04:45:28.423Z,97950.34
2023-02-27T04:48:02.415Z,97951.16
2023-02-27T04:50:37.355Z,97952.88
2023-02-27T04:53:12.498Z,97951.16
2023-02-27T04:55:47.676Z,97949.44
2023-02-27T04:58:21.029Z,97952.81
2023-02-27T05:00:57.061Z,97954.50
2023-02-27T05:03:27.902Z,97956.16
2023-02-27T05:06:00.206Z,97944.38
2023-02-27T05:08:34.779Z,97950.31
2023-02-27T05:11:09.973Z,97946.97
2023-02-27T05:13:43.118Z,97957.03
2023-02-27T05:16:20.891Z,97953.66
2023-02-27T05:18:50.754Z,97956.16
2023-02-27T05:21:28.217Z,97956.16
2023-02-27T05:24:10.906Z,97953.63
2023-02-27T05:26:56.876Z,97951.94
2023-02-27T05:29:32.587Z,97957.78
2023-02-27T05:32:11.654Z,97951.94
2023-02-27T05:34:45.516Z,97952.78
2023-02-27T05:37:17.316Z,97955.28
2023-02-27T05:39:49.518Z,97948.59
2023-02-27T05:42:22.123Z,97957.81
2023-02-27T05:44:55.548Z,97952.75
2023-02-27T05:47:31.333Z,97960.34
2023-02-27T05:50:05.318Z,97962.06
2023-02-27T05:52:36.261Z,97959.56
2023-02-27T05:55:08.186Z,97968.78
2023-02-27T05:57:41.840Z,97961.22
2023-02-27T06:00:17.367Z,97965.41
2023-02-27T06:02:47.328Z,97963.75
2023-02-27T06:05:18.713Z,97961.19
2023-02-27T06:07:47.449Z,97963.72
2023-02-27T06:10:17.640Z,97960.38
2023-02-27T06:12:46.566Z,97970.44
2023-02-27T06:15:15.384Z,97968.75
2023-02-27T06:17:43.898Z,97968.75
2023-02-27T06:20:14.554Z,97971.28
2023-02-27T06:22:42.943Z,97980.50
2023-02-27T06:25:12.023Z,97978.84
2023-02-27T06:27:40.483Z,97983.06
2023-02-27T06:30:10.168Z,97980.50
2023-02-27T06:32:38.700Z,97981.41
2023-02-27T06:35:08.579Z,97992.28
2023-02-27T06:37:38.770Z,97991.47
2023-02-27T06:40:11.499Z,97997.38
2023-02-27T06:42:40.192Z,98002.38
2023-02-27T06:45:10.257Z,97995.69
2023-02-27T06:47:39.020Z,97997.41
2023-02-27T06:50:12.186Z,97990.72
2023-02-27T06:52:42.250Z,97989.91
2023-02-27T06:55:11.990Z,97993.31
2023-02-27T06:57:40.520Z,98000.91
2023-02-27T07:00:11.853Z,98000.91
2023-02-27T07:02:40.748Z,98002.59
2023-02-27T07:05:11.953Z,98000.88
2023-02-27T07:07:41.850Z,98008.50
2023-02-27T07:10:13.917Z,98007.69
2023-02-27T07:12:42.461Z,98007.69
2023-02-27T07:15:12.041Z,98011.09
2023-02-27T07:17:40.742Z,98008.59
2023-02-27T07:20:12.608Z,98006.91
2023-02-27T07:22:42.496Z,98014.47
2023-02-27T07:25:11.524Z,97997.69
2023-02-27T07:27:40.043Z,98001.91
2023-02-27T07:30:09.934Z,98016.22
2023-02-27T07:32:38.374Z,98007.78
2023-02-27T07:35:08.135Z,98004.44
2023-02-27T07:37:36.988Z,98007.81
2023-02-27T07:40:09.042Z,98017.06
2023-02-27T07:42:37.517Z,98016.25
2023-02-27T07:45:07.633Z,98016.25
2023-02-27T07:47:36.287Z,98001.91
2023-02-27T07:50:05.417Z,98014.50
2023-02-27T07:52:34.136Z,98012.81
2023-02-27T07:55:02.667Z,98013.66
2023-02-27T07:57:32.566Z,98019.50
2023-02-27T08:00:01.040Z,98020.31
2023-02-27T08:02:29.574Z,98012.69
2023-02-27T08:04:58.045Z,98008.38
2023-02-27T08:07:26.786Z,98010.06
2023-02-27T08:09:55.247Z,98026.00
2023-02-27T08:12:24.155Z,98019.19
2023-02-27T08:14:54.119Z,98004.59
2023-02-27T08:17:22.659Z,98023.91
2023-02-27T08:19:51.099Z,98022.13
2023-02-27T08:22:19.586Z,98022.91
2023-02-27T08:24:48.193Z,98032.91
2023-02-27T08:27:16.599Z,98030.91
2023-02-27T08:29:45.528Z,98027.63
2023-02-27T08:32:15.497Z,98022.03
2023-02-27T08:34:43.978Z,98034.91
2023-02-27T08:37:12.523Z,98035.00
2023-02-27T08:39:40.988Z,98031.59
2023-02-27T08:42:10.062Z,98027.81
2023-02-27T08:44:38.623Z,98041.97
2023-02-27T08:47:07.118Z,98039.91
2023-02-27T08:49:37.058Z,98035.78
2023-02-27T08:52:05.605Z,98036.34
2023-02-27T08:54:34.041Z,98039.91
2023-02-27T08:57:02.630Z,98039.66
2023-02-27T08:59:31.357Z,98037.44
2023-02-27T09:02:00.045Z,98036.91
2023-02-27T09:04:28.762Z,98030.34
2023-02-27T09:06:58.606Z,98043.78
2023-02-27T09:09:27.449Z,98043.69
2023-02-27T09:11:56.022Z,98038.34
2023-02-27T09:14:25.095Z,98033.06
2023-02-27T09:16:53.661Z,98040.75
2023-02-27T09:19:22.360Z,98043.75
2023-02-27T09:21:50.833Z,98039.19
2023-02-27T09:24:21.123Z,98040.69
2023-02-27T09:26:49.844Z,98046.88
2023-02-27T09:29:18.732Z,98039.13
2023-02-27T09:31:47.349Z,98048.81
2023-02-27T09:34:15.889Z,98050.03
2023-02-27T09:36:44.379Z,98044.56
2023-02-27T09:39:12.835Z,98047.56
2023-02-27T09:41:57.264Z,98037.91
2023-02-27T09:44:45.737Z,98047.25
2023-02-27T09:47:20.428Z,98042.50
2023-02-27T09:50:00.408Z,98045.78
2023-02-27T09:52:30.214Z,98049.38
2023-02-27T09:54:59.072Z,98046.41
2023-02-27T09:57:43.741Z,98054.75
2023-02-27T10:00:28.191Z,98061.94
2023-02-27T10:03:02.954Z,98063.56
2023-02-27T10:05:38.493Z,98060.28
2023-02-27T10:08:15.646Z,98059.94
2023-02-27T10:10:51.319Z,98063.59
2023-02-27T10:13:50.393Z,98061.78
2023-02-27T10:16:21.899Z,98061.78
2023-02-27T10:18:57.987Z,98070.84
2023-02-27T10:21:34.231Z,98074.19
2023-02-27T10:24:07.866Z,98074.00
2023-02-27T10:26:40.484Z,98073.16
2023-02-27T10:29:24.237Z,98077.47
2023-02-27T10:32:01.303Z,98070.56
2023-02-27T10:34:32.001Z,98076.50
2023-02-27T10:37:03.497Z,98098.81
2023-02-27T10:39:37.508Z,98074.44
2023-02-27T10:42:10.411Z,98091.41
2023-02-27T10:44:40.324Z,98095.28
2023-02-27T10:47:13.943Z,98099.44
2023-02-27T10:49:43.849Z,98095.78
2023-02-27T10:52:14.614Z,98096.63
2023-02-27T10:54:44.000Z,98100.47
2023-02-27T10:57:26.201Z,98113.75
2023-02-27T10:59:58.779Z,98095.28
2023-02-27T11:02:33.793Z,98098.44
2023-02-27T11:05:02.586Z,98104.13
2023-02-27T11:07:33.877Z,98116.41
2023-02-27T11:10:16.108Z,98105.69
2023-02-27T11:12:59.519Z,98097.56
2023-02-27T11:15:31.553Z,98105.47
2023-02-27T11:18:25.720Z,98099.34
2023-02-27T11:20:54.732Z,98091.41
2023-02-27T11:23:24.903Z,98086.22
2023-02-27T11:26:12.071Z,98084.75
2023-02-27T11:28:40.443Z,98076.44
2023-02-27T11:31:20.187Z,98080.50
2023-02-27T11:33:52.203Z,98084.13
2023-02-27T11:36:23.524Z,98085.22
2023-02-27T11:38:54.241Z,98087.75
2023-02-27T11:41:31.915Z,98084.78
2023-02-27T11:44:02.971Z,98085.88
2023-02-27T11:46:47.328Z,98072.56
2023-02-27T11:49:33.307Z,98089.38
2023-02-27T11:52:11.526Z,98085.25
2023-02-27T11:54:44.396Z,98066.97
2023-02-27T11:57:24.625Z,98077.47
2023-02-27T11:59:59.320Z,98078.03
2023-02-27T12:02:39.436Z,98076.63
2023-02-27T12:05:15.337Z,98081.78
2023-02-27T12:07:49.917Z,98071.75
2023-02-27T12:10:21.284Z,98076.50
2023-02-27T12:12:54.238Z,98081.22
2023-02-27T12:15:28.751Z,98076.41
2023-02-27T12:18:08.016Z,98071.06
2023-02-27T12:20:41.556Z,98081.88
2023-02-27T12:23:18.976Z,98074.75
2023-02-27T12:25:52.598Z,98083.75
2023-02-27T12:28:34.191Z,98069.81
2023-02-27T12:31:14.124Z,98070.88
2023-02-27T12:33:50.862Z,98073.25
2023-02-27T12:38:16.441Z,98056.50
2023-02-27T12:40:52.600Z,98053.63
2023-02-27T12:43:32.132Z,98067.16
2023-02-27T12:46:22.126Z,98067.00
2023-02-27T12:49:06.022Z,98054.84
2023-02-27T12:54:20.996Z,98054.31
2023-02-27T12:57:02.042Z,98050.09
2023-02-27T12:59:44.421Z,98053.47
2023-02-27T13:02:30.697Z,98043.56
2023-02-27T13:05:08.956Z,98051.53
2023-02-27T13:07:44.836Z,98051.84
2023-02-27T13:10:19.953Z,98055.50
2023-02-27T13:12:54.865Z,98054.16
2023-02-27T13:15:27.049Z,98054.84
2023-02-27T13:18:00.341Z,98050.53
2023-02-27T13:20:37.274Z,98051.31
2023-02-27T13:23:17.236Z,98028.31
2023-02-27T13:25:51.076Z,98051.16
2023-02-27T13:28:24.102Z,98052.56
2023-02-27T13:31:03.092Z,98055.84
2023-02-27T13:33:39.699Z,98054.53
2023-02-27T13:36:14.372Z,98047.06
2023-02-27T13:38:45.020Z,98048.38
2023-02-27T13:41:42.098Z,98047.56
2023-02-27T13:44:42.007Z,98052.25
2023-02-27T13:47:40.000Z,98047.28
2023-02-27T13:50:45.665Z,98036.06
2023-02-27T13:53:21.465Z,98044.84
2023-02-27T13:55:51.309Z,98041.69
2023-02-27T13:58:25.394Z,98054.09
2023-02-27T14:00:58.355Z,98049.59
2023-02-27T14:03:30.104Z,98049.00
2023-02-27T14:06:03.591Z,98051.88
2023-02-27T14:08:38.437Z,98051.78
2023-02-27T14:11:18.487Z,98052.13
2023-02-27T14:14:05.066Z,98049.94
2023-02-27T14:16:52.953Z,98045.66
2023-02-27T14:19:50.312Z,98045.66
2023-02-27T14:23:09.596Z,98046.66
2023-02-27T14:25:43.065Z,98053.50
2023-02-27T14:28:21.472Z,98051.66
2023-02-27T14:30:57.435Z,98055.97
2023-02-27T14:33:39.688Z,98061.88
2023-02-27T14:36:16.789Z,98065.22
2023-02-27T14:38:45.430Z,98068.06
2023-02-27T14:41:26.645Z,98054.59
2023-02-27T14:43:57.587Z,98067.38
2023-02-27T14:46:31.114Z,98073.53
2023-02-27T14:49:01.766Z,98064.28
2023-02-27T14:51:32.871Z,98070.84
2023-02-27T14:54:04.233Z,98082.31
2023-02-27T14:56:33.619Z,98077.19
2023-02-27T14:59:04.650Z,98083.81
2023-02-27T15:01:38.509Z,98077.81
2023-02-27T15:05:27.981Z,98089.91
2023-02-27T15:07:56.745Z,98086.63
2023-02-27T15:10:30.994Z,98085.16
2023-02-27T15:13:00.904Z,98091.78
2023-02-27T15:15:29.871Z,98090.97
2023-02-27T15:17:59.271Z,98097.13
2023-02-27T15:20:32.197Z,98093.88
2023-02-27T15:23:02.631Z,98096.41
2023-02-27T15:25:33.661Z,98109.94
2023-02-27T15:28:04.394Z,98106.78
2023-02-27T15:30:33.510Z,98111.16
2023-02-27T15:33:03.014Z,98121.41
2023-02-27T15:35:37.908Z,98113.59
2023-02-27T15:38:07.597Z,98113.63
2023-02-27T15:40:37.348Z,98113.63
2023-02-27T15:43:06.246Z,98122.81
2023-02-27T15:45:36.851Z,98127.19
2023-02-27T15:48:06.279Z,98126.13
2023-02-27T15:50:38.594Z,98125.31
2023-02-27T15:55:03.867Z,98120.56
2023-02-27T15:57:33.673Z,98121.47
2023-02-27T16:00:02.347Z,98127.31
2023-02-27T16:02:45.846Z,98124.03
2023-02-27T16:05:19.578Z,98133.34
2023-02-27T16:07:49.777Z,98145.25
2023-02-27T16:10:22.839Z,98136.84
2023-02-27T16:12:51.508Z,98150.44
2023-02-27T16:15:30.891Z,98147.94
2023-02-27T16:18:01.925Z,98154.69
2023-02-27T16:20:47.887Z,98159.84
2023-02-27T16:23:21.346Z,98160.66
2023-02-27T16:26:21.662Z,98167.50
2023-02-27T16:28:53.143Z,98175.91
2023-02-27T16:31:26.376Z,98179.34
2023-02-27T16:33:57.018Z,98181.06
2023-02-27T16:36:27.904Z,98181.97
2023-02-27T16:38:56.862Z,98187.97
2023-02-27T16:41:26.773Z,98187.09
2023-02-27T16:43:55.670Z,98184.59
2023-02-27T16:46:24.154Z,98195.66
2023-02-27T16:48:54.571Z,98197.31
2023-02-27T16:51:24.161Z,98194.81
2023-02-27T16:53:53.907Z,98197.38
2023-02-27T16:56:37.415Z,98199.06
2023-02-27T16:59:08.535Z,98195.69
2023-02-27T17:01:37.037Z,98202.47
2023-02-27T17:04:16.479Z,98198.28
2023-02-27T17:06:52.598Z,98207.66
2023-02-27T17:09:21.390Z,98200.09
2023-02-27T17:11:50.190Z,98197.63
2023-02-27T17:14:20.074Z,98204.41
2023-02-27T17:16:48.660Z,98202.78
2023-02-27T17:19:17.467Z,98211.25
2023-02-27T17:21:46.000Z,98211.22
2023-02-27T17:24:14.736Z,98211.25
2023-02-27T17:26:43.240Z,98220.59
2023-02-27T17:29:12.096Z,98223.94
2023-02-27T17:31:44.714Z,98229.91
2023-02-27T17:34:13.329Z,98229.06
2023-02-27T17:36:42.064Z,98223.16
2023-02-27T17:39:13.782Z,98225.69
2023-02-27T17:41:43.726Z,98229.91
2023-02-27T17:44:12.604Z,98228.25
2023-02-27T17:46:42.446Z,98238.38
2023-02-27T17:49:10.856Z,98247.69
2023-02-27T17:51:39.212Z,98245.19
2023-02-27T17:54:08.158Z,98242.66
2023-02-27T17:56:37.143Z,98247.72
2023-02-27T17:59:07.576Z,98251.09
2023-02-27T18:01:36.775Z,98247.72
2023-02-27T18:04:07.962Z,98257.03
2023-02-27T18:06:36.458Z,98255.38
2023-02-27T18:09:05.419Z,98262.97
2023-02-27T18:11:33.897Z,98262.13
2023-02-27T18:14:02.273Z,98263.78
2023-02-27T18:16:31.317Z,98264.69
2023-02-27T18:19:03.256Z,98266.38
2023-02-27T18:21:34.183Z,98267.25
2023-02-27T18:24:02.789Z,98258.81
2023-02-27T18:26:33.361Z,98270.63
2023-02-27T18:29:04.514Z,98264.72
2023-02-27T18:31:35.211Z,98264.72
2023-02-27T18:34:03.887Z,98268.94
2023-02-27T18:36:34.604Z,98267.25
2023-02-27T18:39:04.877Z,98266.44
2023-02-27T18:41:33.329Z,98268.97
2023-02-27T18:44:01.914Z,98267.28
2023-02-27T18:46:30.720Z,98265.59
2023-02-27T18:48:59.934Z,98262.25
2023-02-27T18:51:28.793Z,98268.97
2023-02-27T18:54:00.000Z,98270.69
2023-02-27T18:56:30.489Z,98269.84
2023-02-27T18:59:02.172Z,98272.38
2023-02-27T19:01:32.823Z,98281.69
2023-02-27T19:04:03.728Z,98273.25
2023-02-27T19:06:33.133Z,98279.97
2023-02-27T19:09:05.431Z,98274.06
2023-02-27T19:11:35.416Z,98270.72
2023-02-27T19:14:05.769Z,98274.06
2023-02-27T19:16:34.574Z,98278.31
2023-02-27T19:19:04.813Z,98268.19
2023-02-27T19:21:34.228Z,98267.34
2023-02-27T19:24:04.329Z,98266.50
2023-02-27T19:26:34.654Z,98271.56
2023-02-27T19:29:03.458Z,98268.19
2023-02-27T19:31:32.738Z,98279.16
2023-02-27T19:34:01.866Z,98277.50
2023-02-27T19:36:31.430Z,98274.97
2023-02-27T19:39:00.260Z,98278.31
2023-02-27T19:41:32.441Z,98274.97
2023-02-27T19:44:01.944Z,98272.44
2023-02-27T19:46:33.328Z,98272.44
2023-02-27T19:49:04.293Z,98269.88
2023-02-27T19:51:32.877Z,98269.91
2023-02-27T19:54:01.569Z,98274.13
2023-02-27T19:56:31.914Z,98273.28
2023-02-27T19:59:00.886Z,98274.97
2023-02-27T20:01:32.536Z,98273.28
2023-02-27T20:04:01.921Z,98270.78
2023-02-27T20:06:33.843Z,98273.28
2023-02-27T20:09:02.313Z,98258.94
2023-02-27T20:11:32.612Z,98258.94
2023-02-27T20:14:01.651Z,98263.19
2023-02-27T20:16:34.232Z,98261.47
2023-02-27T20:19:03.561Z,98273.34
2023-02-27T20:21:33.148Z,98257.28
2023-02-27T20:24:02.073Z,98262.38
2023-02-27T20:26:33.620Z,98270.78
2023-02-27T20:29:04.700Z,98272.50
2023-02-27T20:31:35.242Z,98260.69
2023-02-27T20:34:05.962Z,98261.53
2023-02-27T20:36:35.641Z,98258.97
2023-02-27T20:39:05.282Z,98257.28
2023-02-27T20:41:36.790Z,98253.88
2023-02-27T20:44:08.093Z,98256.44
2023-02-27T20:46:37.538Z,98245.47
2023-02-27T20:49:07.358Z,98248.81
2023-02-27T20:51:38.462Z,98250.53
2023-02-27T20:54:09.153Z,98248.84
2023-02-27T20:56:41.465Z,98248.81
2023-02-27T20:59:14.507Z,98242.06
2023-02-27T21:01:51.318Z,98249.69
2023-02-27T21:04:21.971Z,98242.09
2023-02-27T21:06:51.004Z,98242.94
2023-02-27T21:09:19.814Z,98248.00
2023-02-27T21:11:49.612Z,98248.88
2023-02-27T21:14:18.014Z,98253.09
2023-02-27T21:16:46.471Z,98245.50
2023-02-27T21:19:14.940Z,98243.84
2023-02-27T21:21:43.358Z,98249.75
2023-02-27T21:24:11.861Z,98249.72
2023-02-27T21:26:40.423Z,98249.72
2023-02-27T21:29:12.289Z,98245.50
2023-02-27T21:31:42.308Z,98242.13
2023-02-27T21:34:14.882Z,98242.16
2023-02-27T21:36:44.682Z,98244.69
2023-02-27T21:39:15.072Z,98237.91
2023-02-27T21:41:43.524Z,98241.31
2023-02-27T21:44:16.621Z,98237.91
2023-02-27T21:46:46.116Z,98237.06
2023-02-27T21:49:17.924Z,98236.22
2023-02-27T21:51:47.086Z,98226.97
2023-02-27T21:54:17.156Z,98226.09
2023-02-27T21:56:47.319Z,98224.41
2023-02-27T21:59:18.320Z,98234.53
2023-02-27T22:01:48.255Z,98227.78
2023-02-27T22:04:18.142Z,98215.97
2023-02-27T22:06:47.353Z,98226.94
2023-02-27T22:09:15.974Z,98228.63
2023-02-27T22:11:44.811Z,98221.88
2023-02-27T22:14:13.841Z,98220.22
2023-02-27T22:16:44.058Z,98226.09
2023-02-27T22:19:18.792Z,98216.81
2023-02-27T22:21:47.346Z,98217.66
2023-02-27T22:24:16.158Z,98224.38
2023-02-27T22:26:45.733Z,98224.38
2023-02-27T22:29:14.671Z,98219.28
2023-02-27T22:31:44.747Z,98218.47
2023-02-27T22:34:17.943Z,98211.72
2023-02-27T22:36:52.038Z,98224.38
2023-02-27T22:39:21.229Z,98225.19
2023-02-27T22:41:49.718Z,98215.09
2023-02-27T22:44:18.327Z,98221.84
2023-02-27T22:46:50.591Z,98221.88
2023-02-27T22:49:21.141Z,98219.34
2023-02-27T22:51:51.106Z,98216.81
2023-02-27T22:54:21.347Z,98216.84
2023-02-27T22:56:51.762Z,98218.50
2023-02-27T22:59:20.400Z,98212.59
2023-02-27T23:01:51.494Z,98221.03
2023-02-27T23:04:22.066Z,98211.75
2023-02-27T23:06:52.844Z,98219.34
2023-02-27T23:09:24.130Z,98212.59
2023-02-27T23:11:52.698Z,98205.84
2023-02-27T23:14:21.502Z,98201.63
2023-02-27T23:16:51.396Z,98199.13
2023-02-27T23:19:21.846Z,98200.81
2023-02-27T23:21:50.341Z,98200.81
2023-02-27T23:24:20.184Z,98202.50
2023-02-27T23:26:50.926Z,98199.13
2023-02-27T23:29:19.600Z,98199.94
2023-02-27T23:31:48.199Z,98197.44
2023-02-27T23:34:18.089Z,98189.84
2023-02-27T23:36:46.552Z,98194.88
2023-02-27T23:39:15.042Z,98194.88
2023-02-27T23:41:43.502Z,98195.75
2023-02-27T23:44:29.610Z,98182.25
2023-02-27T23:46:58.074Z,98193.22
2023-02-27T23:49:27.840Z,98180.56
2023-02-27T23:51:56.253Z,98183.09
2023-02-27T23:54:24.674Z,98185.63
2023-02-27T23:56:53.167Z,98178.88
2023-02-27T23:59:21.642Z,98184.78
